sensor_id;sensor_type;location;lat;lon;timestamp;P1;durP1;ratioP1;P2;durP2;ratioP2
25349;SDS011;13302;48.796;11.978;2023-09-19T00:00:25;1.57;;;1.13;;
25349;SDS011;13302;48.796;11.978;2023-09-19T00:03:14;1.57;;;1.00;;
25349;SDS011;13302;48.796;11.978;2023-09-19T00:06:02;0.90;;;0.90;;
25349;SDS011;13302;48.796;11.978;2023-09-19T00:08:49;1.10;;;1.10;;
25349;SDS011;13302;48.796;11.978;2023-09-19T00:11:37;1.23;;;1.13;;
25349;SDS011;13302;48.796;11.978;2023-09-19T00:14:25;1.13;;;1.00;;
25349;SDS011;13302;48.796;11.978;2023-09-19T00:17:12;0.90;;;0.90;;
25349;SDS011;13302;48.796;11.978;2023-09-19T00:19:59;1.57;;;1.10;;
25349;SDS011;13302;48.796;11.978;2023-09-19T00:22:53;1.20;;;1.20;;
25349;SDS011;13302;48.796;11.978;2023-09-19T00:25:41;1.30;;;1.00;;
25349;SDS011;13302;48.796;11.978;2023-09-19T00:28:28;3.20;;;1.10;;
25349;SDS011;13302;48.796;11.978;2023-09-19T00:31:18;1.33;;;1.33;;
25349;SDS011;13302;48.796;11.978;2023-09-19T00:34:05;1.00;;;1.00;;
25349;SDS011;13302;48.796;11.978;2023-09-19T00:36:57;1.17;;;1.10;;
25349;SDS011;13302;48.796;11.978;2023-09-19T00:39:44;1.90;;;1.00;;
25349;SDS011;13302;48.796;11.978;2023-09-19T00:42:31;0.90;;;0.90;;
25349;SDS011;13302;48.796;11.978;2023-09-19T00:45:20;1.10;;;1.10;;
25349;SDS011;13302;48.796;11.978;2023-09-19T00:48:07;0.90;;;0.90;;
25349;SDS011;13302;48.796;11.978;2023-09-19T00:50:57;2.00;;;1.13;;
25349;SDS011;13302;48.796;11.978;2023-09-19T00:53:48;1.30;;;1.20;;
25349;SDS011;13302;48.796;11.978;2023-09-19T00:56:36;0.87;;;0.87;;
25349;SDS011;13302;48.796;11.978;2023-09-19T00:59:24;1.30;;;1.27;;
25349;SDS011;13302;48.796;11.978;2023-09-19T01:02:11;2.47;;;1.13;;
25349;SDS011;13302;48.796;11.978;2023-09-19T01:05:00;1.10;;;1.10;;
25349;SDS011;13302;48.796;11.978;2023-09-19T01:07:48;2.23;;;1.07;;
25349;SDS011;13302;48.796;11.978;2023-09-19T01:10:35;1.17;;;1.17;;
25349;SDS011;13302;48.796;11.978;2023-09-19T01:13:31;1.10;;;1.10;;
25349;SDS011;13302;48.796;11.978;2023-09-19T01:19:35;1.30;;;1.07;;
25349;SDS011;13302;48.796;11.978;2023-09-19T01:22:47;1.40;;;1.10;;
25349;SDS011;13302;48.796;11.978;2023-09-19T01:32:25;2.43;;;1.10;;
25349;SDS011;13302;48.796;11.978;2023-09-19T01:35:13;0.80;;;0.80;;
25349;SDS011;13302;48.796;11.978;2023-09-19T01:38:00;1.00;;;1.00;;
25349;SDS011;13302;48.796;11.978;2023-09-19T01:40:50;1.00;;;1.00;;
25349;SDS011;13302;48.796;11.978;2023-09-19T01:43:52;1.73;;;1.17;;
25349;SDS011;13302;48.796;11.978;2023-09-19T01:46:40;1.60;;;1.30;;
25349;SDS011;13302;48.796;11.978;2023-09-19T01:49:33;1.70;;;1.00;;
25349;SDS011;13302;48.796;11.978;2023-09-19T01:52:30;2.33;;;1.17;;
25349;SDS011;13302;48.796;11.978;2023-09-19T01:55:23;1.70;;;1.10;;
25349;SDS011;13302;48.796;11.978;2023-09-19T01:58:26;2.00;;;1.20;;
25349;SDS011;13302;48.796;11.978;2023-09-19T02:01:20;1.30;;;1.10;;
25349;SDS011;13302;48.796;11.978;2023-09-19T02:04:10;1.37;;;1.27;;
25349;SDS011;13302;48.796;11.978;2023-09-19T02:06:58;1.07;;;1.03;;
25349;SDS011;13302;48.796;11.978;2023-09-19T02:09:45;3.00;;;1.20;;
25349;SDS011;13302;48.796;11.978;2023-09-19T02:12:33;1.30;;;1.20;;
25349;SDS011;13302;48.796;11.978;2023-09-19T02:15:23;1.33;;;1.20;;
25349;SDS011;13302;48.796;11.978;2023-09-19T02:18:10;1.00;;;1.00;;
25349;SDS011;13302;48.796;11.978;2023-09-19T02:20:58;1.33;;;1.00;;
25349;SDS011;13302;48.796;11.978;2023-09-19T02:23:45;1.40;;;1.27;;
25349;SDS011;13302;48.796;11.978;2023-09-19T02:26:34;1.57;;;1.10;;
25349;SDS011;13302;48.796;11.978;2023-09-19T02:29:22;1.20;;;1.20;;
25349;SDS011;13302;48.796;11.978;2023-09-19T02:32:09;1.10;;;1.00;;
25349;SDS011;13302;48.796;11.978;2023-09-19T02:34:57;1.10;;;1.00;;
25349;SDS011;13302;48.796;11.978;2023-09-19T02:37:50;1.07;;;1.00;;
25349;SDS011;13302;48.796;11.978;2023-09-19T02:40:37;1.10;;;1.00;;
25349;SDS011;13302;48.796;11.978;2023-09-19T02:43:27;1.07;;;1.07;;
25349;SDS011;13302;48.796;11.978;2023-09-19T02:46:14;1.60;;;1.20;;
25349;SDS011;13302;48.796;11.978;2023-09-19T02:49:02;1.27;;;0.90;;
25349;SDS011;13302;48.796;11.978;2023-09-19T02:51:51;3.47;;;1.10;;
25349;SDS011;13302;48.796;11.978;2023-09-19T02:54:38;1.10;;;1.10;;
25349;SDS011;13302;48.796;11.978;2023-09-19T02:57:26;1.50;;;1.00;;
25349;SDS011;13302;48.796;11.978;2023-09-19T03:00:14;1.23;;;1.00;;
25349;SDS011;13302;48.796;11.978;2023-09-19T03:03:02;1.17;;;1.00;;
25349;SDS011;13302;48.796;11.978;2023-09-19T03:05:50;1.17;;;1.00;;
25349;SDS011;13302;48.796;11.978;2023-09-19T03:08:41;1.97;;;1.17;;
25349;SDS011;13302;48.796;11.978;2023-09-19T03:11:29;2.80;;;1.10;;
25349;SDS011;13302;48.796;11.978;2023-09-19T03:14:17;1.07;;;1.00;;
25349;SDS011;13302;48.796;11.978;2023-09-19T03:17:07;1.10;;;1.00;;
25349;SDS011;13302;48.796;11.978;2023-09-19T03:19:56;1.23;;;0.80;;
25349;SDS011;13302;48.796;11.978;2023-09-19T03:22:44;1.00;;;1.00;;
25349;SDS011;13302;48.796;11.978;2023-09-19T03:25:35;1.53;;;1.20;;
25349;SDS011;13302;48.796;11.978;2023-09-19T03:28:23;1.00;;;0.90;;
25349;SDS011;13302;48.796;11.978;2023-09-19T03:31:11;2.00;;;1.10;;
25349;SDS011;13302;48.796;11.978;2023-09-19T03:33:58;1.67;;;1.10;;
25349;SDS011;13302;48.796;11.978;2023-09-19T03:36:46;1.20;;;1.20;;
25349;SDS011;13302;48.796;11.978;2023-09-19T03:39:33;1.47;;;1.00;;
25349;SDS011;13302;48.796;11.978;2023-09-19T03:42:20;1.93;;;0.90;;
25349;SDS011;13302;48.796;11.978;2023-09-19T03:45:12;1.10;;;1.10;;
25349;SDS011;13302;48.796;11.978;2023-09-19T03:48:08;2.33;;;0.93;;
25349;SDS011;13302;48.796;11.978;2023-09-19T03:50:56;0.97;;;0.97;;
25349;SDS011;13302;48.796;11.978;2023-09-19T03:53:44;0.93;;;0.90;;
25349;SDS011;13302;48.796;11.978;2023-09-19T03:56:31;0.80;;;0.80;;
25349;SDS011;13302;48.796;11.978;2023-09-19T03:59:18;0.90;;;0.90;;
25349;SDS011;13302;48.796;11.978;2023-09-19T04:02:06;2.60;;;0.90;;
25349;SDS011;13302;48.796;11.978;2023-09-19T04:04:58;0.80;;;0.80;;
25349;SDS011;13302;48.796;11.978;2023-09-19T04:07:45;0.80;;;0.80;;
25349;SDS011;13302;48.796;11.978;2023-09-19T04:10:33;0.70;;;0.70;;
25349;SDS011;13302;48.796;11.978;2023-09-19T04:13:20;0.80;;;0.80;;
25349;SDS011;13302;48.796;11.978;2023-09-19T04:16:07;0.70;;;0.70;;
25349;SDS011;13302;48.796;11.978;2023-09-19T04:18:54;0.80;;;0.80;;
25349;SDS011;13302;48.796;11.978;2023-09-19T04:21:41;1.53;;;0.80;;
25349;SDS011;13302;48.796;11.978;2023-09-19T04:24:29;0.70;;;0.70;;
25349;SDS011;13302;48.796;11.978;2023-09-19T04:27:16;1.63;;;0.90;;
25349;SDS011;13302;48.796;11.978;2023-09-19T04:30:03;1.00;;;0.90;;
25349;SDS011;13302;48.796;11.978;2023-09-19T04:32:57;0.90;;;0.90;;
25349;SDS011;13302;48.796;11.978;2023-09-19T04:35:44;1.17;;;1.00;;
25349;SDS011;13302;48.796;11.978;2023-09-19T04:38:31;0.80;;;0.80;;
25349;SDS011;13302;48.796;11.978;2023-09-19T04:41:18;1.97;;;0.87;;
25349;SDS011;13302;48.796;11.978;2023-09-19T04:44:05;0.83;;;0.83;;
25349;SDS011;13302;48.796;11.978;2023-09-19T04:46:52;1.17;;;0.90;;
25349;SDS011;13302;48.796;11.978;2023-09-19T04:49:39;1.00;;;0.90;;
25349;SDS011;13302;48.796;11.978;2023-09-19T04:52:26;0.93;;;0.90;;
25349;SDS011;13302;48.796;11.978;2023-09-19T04:55:14;1.00;;;0.90;;
25349;SDS011;13302;48.796;11.978;2023-09-19T04:58:05;1.20;;;1.10;;
25349;SDS011;13302;48.796;11.978;2023-09-19T05:00:52;1.00;;;1.00;;
25349;SDS011;13302;48.796;11.978;2023-09-19T05:03:39;1.00;;;1.00;;
25349;SDS011;13302;48.796;11.978;2023-09-19T05:06:26;1.00;;;1.00;;
25349;SDS011;13302;48.796;11.978;2023-09-19T05:09:13;1.20;;;1.10;;
25349;SDS011;13302;48.796;11.978;2023-09-19T05:12:02;1.53;;;1.20;;
25349;SDS011;13302;48.796;11.978;2023-09-19T05:14:49;1.43;;;1.27;;
25349;SDS011;13302;48.796;11.978;2023-09-19T05:17:37;1.10;;;1.10;;
25349;SDS011;13302;48.796;11.978;2023-09-19T05:20:24;2.50;;;1.27;;
25349;SDS011;13302;48.796;11.978;2023-09-19T05:23:17;1.40;;;1.30;;
25349;SDS011;13302;48.796;11.978;2023-09-19T05:26:04;1.70;;;1.10;;
25349;SDS011;13302;48.796;11.978;2023-09-19T05:28:51;2.07;;;1.20;;
25349;SDS011;13302;48.796;11.978;2023-09-19T05:31:39;1.97;;;1.40;;
25349;SDS011;13302;48.796;11.978;2023-09-19T05:34:28;1.33;;;1.13;;
25349;SDS011;13302;48.796;11.978;2023-09-19T05:37:17;1.13;;;1.10;;
25349;SDS011;13302;48.796;11.978;2023-09-19T05:40:04;1.27;;;1.20;;
25349;SDS011;13302;48.796;11.978;2023-09-19T05:42:56;1.10;;;1.10;;
25349;SDS011;13302;48.796;11.978;2023-09-19T05:45:43;1.40;;;1.20;;
25349;SDS011;13302;48.796;11.978;2023-09-19T05:48:31;1.53;;;1.43;;
25349;SDS011;13302;48.796;11.978;2023-09-19T05:51:19;1.30;;;1.30;;
25349;SDS011;13302;48.796;11.978;2023-09-19T05:54:09;2.83;;;1.40;;
25349;SDS011;13302;48.796;11.978;2023-09-19T05:56:57;1.40;;;1.40;;
25349;SDS011;13302;48.796;11.978;2023-09-19T05:59:44;1.00;;;1.00;;
25349;SDS011;13302;48.796;11.978;2023-09-19T06:02:31;1.20;;;1.20;;
25349;SDS011;13302;48.796;11.978;2023-09-19T06:05:20;2.03;;;1.10;;
25349;SDS011;13302;48.796;11.978;2023-09-19T06:08:07;1.20;;;1.20;;
25349;SDS011;13302;48.796;11.978;2023-09-19T06:10:56;1.53;;;1.10;;
25349;SDS011;13302;48.796;11.978;2023-09-19T06:13:43;1.40;;;1.30;;
25349;SDS011;13302;48.796;11.978;2023-09-19T06:16:30;1.30;;;1.20;;
25349;SDS011;13302;48.796;11.978;2023-09-19T06:19:18;1.40;;;1.30;;
25349;SDS011;13302;48.796;11.978;2023-09-19T06:22:09;1.33;;;1.23;;
25349;SDS011;13302;48.796;11.978;2023-09-19T06:24:57;2.23;;;1.43;;
25349;SDS011;13302;48.796;11.978;2023-09-19T06:27:45;2.97;;;1.33;;
25349;SDS011;13302;48.796;11.978;2023-09-19T06:30:40;1.37;;;1.37;;
25349;SDS011;13302;48.796;11.978;2023-09-19T06:33:27;2.13;;;1.20;;
25349;SDS011;13302;48.796;11.978;2023-09-19T06:36:14;1.47;;;1.47;;
25349;SDS011;13302;48.796;11.978;2023-09-19T06:39:02;2.10;;;1.70;;
25349;SDS011;13302;48.796;11.978;2023-09-19T06:41:50;1.70;;;1.50;;
25349;SDS011;13302;48.796;11.978;2023-09-19T06:44:40;2.23;;;1.53;;
25349;SDS011;13302;48.796;11.978;2023-09-19T06:47:27;1.67;;;1.60;;
25349;SDS011;13302;48.796;11.978;2023-09-19T06:50:14;1.33;;;1.23;;
25349;SDS011;13302;48.796;11.978;2023-09-19T06:53:02;1.40;;;1.30;;
25349;SDS011;13302;48.796;11.978;2023-09-19T06:55:50;3.60;;;1.37;;
25349;SDS011;13302;48.796;11.978;2023-09-19T06:58:37;1.50;;;1.40;;
25349;SDS011;13302;48.796;11.978;2023-09-19T07:01:25;1.63;;;1.30;;
25349;SDS011;13302;48.796;11.978;2023-09-19T07:04:12;1.67;;;1.57;;
25349;SDS011;13302;48.796;11.978;2023-09-19T07:06:59;2.20;;;1.60;;
25349;SDS011;13302;48.796;11.978;2023-09-19T07:09:46;2.83;;;1.40;;
25349;SDS011;13302;48.796;11.978;2023-09-19T07:12:35;1.60;;;1.50;;
25349;SDS011;13302;48.796;11.978;2023-09-19T07:15:23;1.20;;;1.10;;
25349;SDS011;13302;48.796;11.978;2023-09-19T07:18:11;1.47;;;1.47;;
25349;SDS011;13302;48.796;11.978;2023-09-19T07:20:59;1.30;;;1.20;;
25349;SDS011;13302;48.796;11.978;2023-09-19T07:23:51;1.50;;;1.40;;
25349;SDS011;13302;48.796;11.978;2023-09-19T07:26:39;1.70;;;1.53;;
25349;SDS011;13302;48.796;11.978;2023-09-19T07:29:26;1.13;;;1.13;;
25349;SDS011;13302;48.796;11.978;2023-09-19T07:32:13;1.50;;;1.40;;
25349;SDS011;13302;48.796;11.978;2023-09-19T07:35:00;1.20;;;1.20;;
25349;SDS011;13302;48.796;11.978;2023-09-19T07:37:48;1.50;;;1.40;;
25349;SDS011;13302;48.796;11.978;2023-09-19T07:40:37;2.13;;;1.40;;
25349;SDS011;13302;48.796;11.978;2023-09-19T07:43:24;1.30;;;1.30;;
25349;SDS011;13302;48.796;11.978;2023-09-19T07:46:12;1.47;;;1.20;;
25349;SDS011;13302;48.796;11.978;2023-09-19T07:48:59;1.33;;;1.13;;
25349;SDS011;13302;48.796;11.978;2023-09-19T07:51:47;1.20;;;1.20;;
25349;SDS011;13302;48.796;11.978;2023-09-19T07:54:34;1.67;;;1.30;;
25349;SDS011;13302;48.796;11.978;2023-09-19T07:57:24;1.00;;;1.00;;
25349;SDS011;13302;48.796;11.978;2023-09-19T08:00:12;0.97;;;0.97;;
25349;SDS011;13302;48.796;11.978;2023-09-19T08:02:59;1.53;;;1.30;;
25349;SDS011;13302;48.796;11.978;2023-09-19T08:05:58;1.30;;;1.20;;
25349;SDS011;13302;48.796;11.978;2023-09-19T08:08:52;1.30;;;1.20;;
25349;SDS011;13302;48.796;11.978;2023-09-19T08:11:47;1.30;;;1.20;;
25349;SDS011;13302;48.796;11.978;2023-09-19T08:14:34;1.80;;;1.33;;
25349;SDS011;13302;48.796;11.978;2023-09-19T08:17:24;1.33;;;1.20;;
25349;SDS011;13302;48.796;11.978;2023-09-19T08:20:14;1.50;;;1.07;;
25349;SDS011;13302;48.796;11.978;2023-09-19T08:23:09;1.57;;;1.20;;
25349;SDS011;13302;48.796;11.978;2023-09-19T08:25:56;1.40;;;1.30;;
25349;SDS011;13302;48.796;11.978;2023-09-19T08:28:43;1.17;;;1.00;;
25349;SDS011;13302;48.796;11.978;2023-09-19T08:31:31;1.20;;;1.20;;
25349;SDS011;13302;48.796;11.978;2023-09-19T08:34:18;1.33;;;1.23;;
25349;SDS011;13302;48.796;11.978;2023-09-19T08:37:06;1.33;;;1.00;;
25349;SDS011;13302;48.796;11.978;2023-09-19T08:39:53;2.73;;;1.63;;
25349;SDS011;13302;48.796;11.978;2023-09-19T08:42:48;1.33;;;1.30;;
25349;SDS011;13302;48.796;11.978;2023-09-19T08:45:40;1.30;;;1.20;;
25349;SDS011;13302;48.796;11.978;2023-09-19T08:48:27;1.10;;;1.00;;
25349;SDS011;13302;48.796;11.978;2023-09-19T08:51:21;1.23;;;1.17;;
25349;SDS011;13302;48.796;11.978;2023-09-19T08:54:22;1.33;;;1.23;;
25349;SDS011;13302;48.796;11.978;2023-09-19T08:57:13;1.37;;;1.27;;
25349;SDS011;13302;48.796;11.978;2023-09-19T09:00:08;1.03;;;1.00;;
25349;SDS011;13302;48.796;11.978;2023-09-19T09:03:04;1.93;;;1.40;;
25349;SDS011;13302;48.796;11.978;2023-09-19T09:05:53;1.07;;;1.00;;
25349;SDS011;13302;48.796;11.978;2023-09-19T09:08:42;1.30;;;1.20;;
25349;SDS011;13302;48.796;11.978;2023-09-19T09:11:30;1.03;;;1.03;;
25349;SDS011;13302;48.796;11.978;2023-09-19T09:14:23;1.47;;;1.07;;
25349;SDS011;13302;48.796;11.978;2023-09-19T09:17:11;1.37;;;1.10;;
25349;SDS011;13302;48.796;11.978;2023-09-19T09:20:01;1.33;;;1.23;;
25349;SDS011;13302;48.796;11.978;2023-09-19T09:22:55;2.63;;;0.90;;
25349;SDS011;13302;48.796;11.978;2023-09-19T09:25:53;1.20;;;1.10;;
25349;SDS011;13302;48.796;11.978;2023-09-19T09:28:46;1.17;;;1.10;;
25349;SDS011;13302;48.796;11.978;2023-09-19T09:31:36;2.87;;;1.30;;
25349;SDS011;13302;48.796;11.978;2023-09-19T09:34:32;4.23;;;1.67;;
25349;SDS011;13302;48.796;11.978;2023-09-19T09:37:21;3.03;;;1.80;;
25349;SDS011;13302;48.796;11.978;2023-09-19T09:40:08;1.33;;;1.30;;
25349;SDS011;13302;48.796;11.978;2023-09-19T09:43:01;2.43;;;1.20;;
25349;SDS011;13302;48.796;11.978;2023-09-19T09:46:05;1.53;;;1.40;;
25349;SDS011;13302;48.796;11.978;2023-09-19T09:49:05;1.87;;;0.90;;
25349;SDS011;13302;48.796;11.978;2023-09-19T09:52:16;0.77;;;0.77;;
25349;SDS011;13302;48.796;11.978;2023-09-19T09:55:04;1.93;;;0.80;;
25349;SDS011;13302;48.796;11.978;2023-09-19T10:01:12;0.90;;;0.87;;
25349;SDS011;13302;48.796;11.978;2023-09-19T10:04:02;0.83;;;0.83;;
25349;SDS011;13302;48.796;11.978;2023-09-19T10:06:49;1.27;;;0.80;;
25349;SDS011;13302;48.796;11.978;2023-09-19T10:09:47;0.97;;;0.80;;
25349;SDS011;13302;48.796;11.978;2023-09-19T10:12:36;0.93;;;0.93;;
25349;SDS011;13302;48.796;11.978;2023-09-19T10:15:31;0.80;;;0.73;;
25349;SDS011;13302;48.796;11.978;2023-09-19T10:18:20;1.37;;;0.87;;
25349;SDS011;13302;48.796;11.978;2023-09-19T10:21:08;1.00;;;0.90;;
25349;SDS011;13302;48.796;11.978;2023-09-19T10:23:59;0.83;;;0.80;;
25349;SDS011;13302;48.796;11.978;2023-09-19T10:26:49;0.90;;;0.90;;
25349;SDS011;13302;48.796;11.978;2023-09-19T10:29:40;1.60;;;1.00;;
25349;SDS011;13302;48.796;11.978;2023-09-19T10:32:29;1.03;;;0.90;;
25349;SDS011;13302;48.796;11.978;2023-09-19T10:35:20;1.63;;;1.00;;
25349;SDS011;13302;48.796;11.978;2023-09-19T10:38:12;0.93;;;0.93;;
25349;SDS011;13302;48.796;11.978;2023-09-19T10:41:05;0.83;;;0.83;;
25349;SDS011;13302;48.796;11.978;2023-09-19T10:43:52;1.23;;;1.00;;
25349;SDS011;13302;48.796;11.978;2023-09-19T10:46:44;0.80;;;0.80;;
25349;SDS011;13302;48.796;11.978;2023-09-19T10:49:32;1.00;;;0.83;;
25349;SDS011;13302;48.796;11.978;2023-09-19T10:52:21;1.00;;;0.90;;
25349;SDS011;13302;48.796;11.978;2023-09-19T10:55:15;1.60;;;1.00;;
25349;SDS011;13302;48.796;11.978;2023-09-19T10:58:05;0.90;;;0.90;;
25349;SDS011;13302;48.796;11.978;2023-09-19T11:01:01;1.30;;;0.97;;
25349;SDS011;13302;48.796;11.978;2023-09-19T11:04:20;0.90;;;0.90;;
25349;SDS011;13302;48.796;11.978;2023-09-19T11:07:12;0.70;;;0.70;;
25349;SDS011;13302;48.796;11.978;2023-09-19T11:10:01;0.90;;;0.90;;
25349;SDS011;13302;48.796;11.978;2023-09-19T11:12:50;0.73;;;0.73;;
25349;SDS011;13302;48.796;11.978;2023-09-19T11:16:02;0.70;;;0.70;;
25349;SDS011;13302;48.796;11.978;2023-09-19T11:18:51;0.70;;;0.70;;
25349;SDS011;13302;48.796;11.978;2023-09-19T11:21:40;0.90;;;0.90;;
25349;SDS011;13302;48.796;11.978;2023-09-19T11:24:29;2.63;;;1.00;;
25349;SDS011;13302;48.796;11.978;2023-09-19T11:27:18;1.03;;;0.77;;
25349;SDS011;13302;48.796;11.978;2023-09-19T11:30:25;1.07;;;0.70;;
25349;SDS011;13302;48.796;11.978;2023-09-19T11:33:23;0.80;;;0.80;;
25349;SDS011;13302;48.796;11.978;2023-09-19T11:36:34;0.80;;;0.80;;
25349;SDS011;13302;48.796;11.978;2023-09-19T11:39:26;0.80;;;0.80;;
25349;SDS011;13302;48.796;11.978;2023-09-19T11:48:37;1.00;;;1.00;;
25349;SDS011;13302;48.796;11.978;2023-09-19T11:51:28;0.87;;;0.83;;
25349;SDS011;13302;48.796;11.978;2023-09-19T11:54:15;1.17;;;1.10;;
25349;SDS011;13302;48.796;11.978;2023-09-19T11:57:05;1.10;;;1.10;;
25349;SDS011;13302;48.796;11.978;2023-09-19T11:59:53;1.13;;;1.00;;
25349;SDS011;13302;48.796;11.978;2023-09-19T12:02:45;0.90;;;0.90;;
25349;SDS011;13302;48.796;11.978;2023-09-19T12:05:33;1.57;;;1.10;;
25349;SDS011;13302;48.796;11.978;2023-09-19T12:08:21;1.00;;;1.00;;
25349;SDS011;13302;48.796;11.978;2023-09-19T12:11:14;1.00;;;1.00;;
25349;SDS011;13302;48.796;11.978;2023-09-19T12:14:02;1.10;;;1.00;;
25349;SDS011;13302;48.796;11.978;2023-09-19T12:16:54;0.90;;;0.90;;
25349;SDS011;13302;48.796;11.978;2023-09-19T12:19:51;0.90;;;0.90;;
25349;SDS011;13302;48.796;11.978;2023-09-19T12:22:42;0.77;;;0.73;;
25349;SDS011;13302;48.796;11.978;2023-09-19T12:25:42;1.10;;;1.07;;
25349;SDS011;13302;48.796;11.978;2023-09-19T12:28:37;1.97;;;1.00;;
25349;SDS011;13302;48.796;11.978;2023-09-19T12:31:29;1.70;;;1.10;;
25349;SDS011;13302;48.796;11.978;2023-09-19T12:34:20;0.87;;;0.87;;
25349;SDS011;13302;48.796;11.978;2023-09-19T12:37:14;1.00;;;0.90;;
25349;SDS011;13302;48.796;11.978;2023-09-19T12:40:08;0.80;;;0.77;;
25349;SDS011;13302;48.796;11.978;2023-09-19T12:43:08;0.83;;;0.83;;
25349;SDS011;13302;48.796;11.978;2023-09-19T12:46:02;0.80;;;0.80;;
25349;SDS011;13302;48.796;11.978;2023-09-19T12:48:50;1.00;;;1.00;;
25349;SDS011;13302;48.796;11.978;2023-09-19T12:52:04;0.90;;;0.90;;
25349;SDS011;13302;48.796;11.978;2023-09-19T12:54:51;1.10;;;0.90;;
25349;SDS011;13302;48.796;11.978;2023-09-19T12:57:38;0.90;;;0.90;;
25349;SDS011;13302;48.796;11.978;2023-09-19T13:00:37;1.07;;;1.07;;
25349;SDS011;13302;48.796;11.978;2023-09-19T13:03:26;0.90;;;0.90;;
25349;SDS011;13302;48.796;11.978;2023-09-19T13:06:35;0.90;;;0.90;;
25349;SDS011;13302;48.796;11.978;2023-09-19T13:09:25;0.80;;;0.80;;
25349;SDS011;13302;48.796;11.978;2023-09-19T13:12:37;0.80;;;0.80;;
25349;SDS011;13302;48.796;11.978;2023-09-19T13:15:25;1.67;;;1.20;;
25349;SDS011;13302;48.796;11.978;2023-09-19T13:18:16;1.30;;;1.20;;
25349;SDS011;13302;48.796;11.978;2023-09-19T13:21:06;1.00;;;1.00;;
25349;SDS011;13302;48.796;11.978;2023-09-19T13:24:22;1.17;;;1.07;;
25349;SDS011;13302;48.796;11.978;2023-09-19T13:27:13;0.97;;;0.97;;
25349;SDS011;13302;48.796;11.978;2023-09-19T13:30:00;1.13;;;1.10;;
25349;SDS011;13302;48.796;11.978;2023-09-19T13:32:47;1.10;;;1.00;;
25349;SDS011;13302;48.796;11.978;2023-09-19T13:35:35;0.80;;;0.80;;
25349;SDS011;13302;48.796;11.978;2023-09-19T13:38:24;2.20;;;1.03;;
25349;SDS011;13302;48.796;11.978;2023-09-19T13:41:11;1.30;;;1.10;;
25349;SDS011;13302;48.796;11.978;2023-09-19T13:43:59;1.27;;;0.97;;
25349;SDS011;13302;48.796;11.978;2023-09-19T13:46:46;0.80;;;0.80;;
25349;SDS011;13302;48.796;11.978;2023-09-19T13:49:34;1.00;;;1.00;;
25349;SDS011;13302;48.796;11.978;2023-09-19T13:52:21;0.80;;;0.80;;
25349;SDS011;13302;48.796;11.978;2023-09-19T13:55:09;0.83;;;0.83;;
25349;SDS011;13302;48.796;11.978;2023-09-19T13:57:56;1.10;;;1.00;;
25349;SDS011;13302;48.796;11.978;2023-09-19T14:00:44;0.70;;;0.70;;
25349;SDS011;13302;48.796;11.978;2023-09-19T14:03:31;0.60;;;0.60;;
25349;SDS011;13302;48.796;11.978;2023-09-19T14:06:18;0.77;;;0.77;;
25349;SDS011;13302;48.796;11.978;2023-09-19T14:09:05;0.90;;;0.90;;
25349;SDS011;13302;48.796;11.978;2023-09-19T14:11:55;2.00;;;1.00;;
25349;SDS011;13302;48.796;11.978;2023-09-19T14:14:42;1.07;;;1.00;;
25349;SDS011;13302;48.796;11.978;2023-09-19T14:17:29;0.80;;;0.80;;
25349;SDS011;13302;48.796;11.978;2023-09-19T14:20:16;0.80;;;0.80;;
25349;SDS011;13302;48.796;11.978;2023-09-19T14:23:04;0.80;;;0.80;;
25349;SDS011;13302;48.796;11.978;2023-09-19T14:25:51;1.00;;;1.00;;
25349;SDS011;13302;48.796;11.978;2023-09-19T14:28:40;1.13;;;1.03;;
25349;SDS011;13302;48.796;11.978;2023-09-19T14:31:28;1.70;;;1.10;;
25349;SDS011;13302;48.796;11.978;2023-09-19T14:34:15;1.43;;;1.30;;
25349;SDS011;13302;48.796;11.978;2023-09-19T14:37:03;1.10;;;1.00;;
25349;SDS011;13302;48.796;11.978;2023-09-19T14:39:50;1.83;;;1.10;;
25349;SDS011;13302;48.796;11.978;2023-09-19T14:42:38;0.90;;;0.90;;
25349;SDS011;13302;48.796;11.978;2023-09-19T14:45:26;1.50;;;1.40;;
25349;SDS011;13302;48.796;11.978;2023-09-19T14:48:13;1.00;;;1.00;;
25349;SDS011;13302;48.796;11.978;2023-09-19T14:51:04;1.17;;;1.17;;
25349;SDS011;13302;48.796;11.978;2023-09-19T14:53:52;1.70;;;1.00;;
25349;SDS011;13302;48.796;11.978;2023-09-19T14:56:39;1.00;;;1.00;;
25349;SDS011;13302;48.796;11.978;2023-09-19T14:59:31;1.50;;;1.30;;
25349;SDS011;13302;48.796;11.978;2023-09-19T15:02:18;1.10;;;1.10;;
25349;SDS011;13302;48.796;11.978;2023-09-19T15:05:06;0.90;;;0.90;;
25349;SDS011;13302;48.796;11.978;2023-09-19T15:07:55;1.00;;;1.00;;
25349;SDS011;13302;48.796;11.978;2023-09-19T15:10:49;0.93;;;0.93;;
25349;SDS011;13302;48.796;11.978;2023-09-19T15:13:39;1.00;;;1.00;;
25349;SDS011;13302;48.796;11.978;2023-09-19T15:16:28;0.80;;;0.80;;
25349;SDS011;13302;48.796;11.978;2023-09-19T15:19:15;1.10;;;1.00;;
25349;SDS011;13302;48.796;11.978;2023-09-19T15:22:04;0.80;;;0.80;;
25349;SDS011;13302;48.796;11.978;2023-09-19T15:24:52;1.40;;;1.30;;
25349;SDS011;13302;48.796;11.978;2023-09-19T15:27:39;0.93;;;0.90;;
25349;SDS011;13302;48.796;11.978;2023-09-19T15:30:28;1.00;;;1.00;;
25349;SDS011;13302;48.796;11.978;2023-09-19T15:33:15;0.70;;;0.70;;
25349;SDS011;13302;48.796;11.978;2023-09-19T15:41:57;1.10;;;1.10;;
25349;SDS011;13302;48.796;11.978;2023-09-19T15:44:44;0.80;;;0.80;;
25349;SDS011;13302;48.796;11.978;2023-09-19T15:47:33;0.90;;;0.90;;
25349;SDS011;13302;48.796;11.978;2023-09-19T15:50:21;0.77;;;0.77;;
25349;SDS011;13302;48.796;11.978;2023-09-19T15:53:08;1.20;;;1.00;;
25349;SDS011;13302;48.796;11.978;2023-09-19T15:55:55;1.23;;;1.10;;
25349;SDS011;13302;48.796;11.978;2023-09-19T15:58:46;0.90;;;0.90;;
25349;SDS011;13302;48.796;11.978;2023-09-19T16:01:34;1.00;;;1.00;;
25349;SDS011;13302;48.796;11.978;2023-09-19T16:04:21;1.10;;;1.10;;
25349;SDS011;13302;48.796;11.978;2023-09-19T16:07:08;0.83;;;0.80;;
25349;SDS011;13302;48.796;11.978;2023-09-19T16:09:55;1.13;;;1.10;;
25349;SDS011;13302;48.796;11.978;2023-09-19T16:12:42;1.20;;;1.10;;
25349;SDS011;13302;48.796;11.978;2023-09-19T16:15:29;1.03;;;1.03;;
25349;SDS011;13302;48.796;11.978;2023-09-19T16:18:16;0.90;;;0.90;;
25349;SDS011;13302;48.796;11.978;2023-09-19T16:21:04;1.00;;;1.00;;
25349;SDS011;13302;48.796;11.978;2023-09-19T16:23:51;1.03;;;1.03;;
25349;SDS011;13302;48.796;11.978;2023-09-19T16:26:39;1.20;;;1.00;;
25349;SDS011;13302;48.796;11.978;2023-09-19T16:29:26;1.17;;;1.10;;
25349;SDS011;13302;48.796;11.978;2023-09-19T16:32:14;1.87;;;1.10;;
25349;SDS011;13302;48.796;11.978;2023-09-19T16:35:01;1.00;;;0.90;;
25349;SDS011;13302;48.796;11.978;2023-09-19T16:37:49;0.93;;;0.93;;
25349;SDS011;13302;48.796;11.978;2023-09-19T16:40:36;1.10;;;1.10;;
25349;SDS011;13302;48.796;11.978;2023-09-19T16:43:25;1.17;;;1.03;;
25349;SDS011;13302;48.796;11.978;2023-09-19T16:46:12;1.33;;;1.20;;
25349;SDS011;13302;48.796;11.978;2023-09-19T16:49:03;1.10;;;1.10;;
25349;SDS011;13302;48.796;11.978;2023-09-19T16:51:51;0.90;;;0.90;;
25349;SDS011;13302;48.796;11.978;2023-09-19T16:54:38;0.93;;;0.93;;
25349;SDS011;13302;48.796;11.978;2023-09-19T16:57:26;1.70;;;1.20;;
25349;SDS011;13302;48.796;11.978;2023-09-19T17:00:13;1.47;;;1.20;;
25349;SDS011;13302;48.796;11.978;2023-09-19T17:03:04;1.00;;;1.00;;
25349;SDS011;13302;48.796;11.978;2023-09-19T17:05:56;0.90;;;0.90;;
25349;SDS011;13302;48.796;11.978;2023-09-19T17:08:46;0.77;;;0.77;;
25349;SDS011;13302;48.796;11.978;2023-09-19T17:11:33;1.00;;;1.00;;